createdAt,value
2019-04-05T00:01:45.367Z,6.00
2019-04-05T00:04:14.048Z,6.10
2019-04-05T00:06:42.440Z,6.10
2019-04-05T00:09:10.848Z,6.10
2019-04-05T00:11:39.508Z,6.10
2019-04-05T00:14:07.933Z,6.10
2019-04-05T00:16:36.370Z,6.10
2019-04-05T00:19:04.809Z,6.10
2019-04-05T00:21:52.542Z,6.10
2019-04-05T00:24:21.038Z,6.10
2019-04-05T00:31:45.596Z,6.00
2019-04-05T00:34:14.010Z,6.00
2019-04-05T00:36:42.451Z,6.00
2019-04-05T00:39:11.292Z,6.00
2019-04-05T00:41:39.698Z,5.90
2019-04-05T00:44:08.178Z,5.90
2019-04-05T00:49:04.844Z,6.00
2019-04-05T00:51:33.242Z,5.90
2019-04-05T00:54:01.755Z,6.00
2019-04-05T00:56:30.183Z,6.00
2019-04-05T00:58:58.584Z,6.00
2019-04-05T01:01:26.991Z,5.90
2019-04-05T01:03:55.392Z,6.00
2019-04-05T01:06:23.852Z,6.00
2019-04-05T01:11:20.476Z,6.00
2019-04-05T01:13:49.805Z,5.90
2019-04-05T01:16:18.260Z,5.80
2019-04-05T01:18:46.644Z,5.90
2019-04-05T01:21:18.149Z,5.90
2019-04-05T01:23:47.620Z,6.00
2019-04-05T01:26:17.602Z,5.90
2019-04-05T01:28:45.998Z,5.90
2019-04-05T01:31:14.459Z,5.90
2019-04-05T01:33:42.848Z,5.90
2019-04-05T01:36:11.256Z,5.90
2019-04-05T01:38:39.648Z,5.90
2019-04-05T01:41:08.059Z,5.90
2019-04-05T01:43:36.454Z,5.90
2019-04-05T01:46:04.965Z,5.90
2019-04-05T01:53:29.624Z,5.70
2019-04-05T01:55:58.025Z,5.70
2019-04-05T01:58:26.447Z,5.70
2019-04-05T02:00:54.860Z,5.80
2019-04-05T02:03:23.295Z,5.80
2019-04-05T02:05:51.697Z,5.70
2019-04-05T02:08:20.200Z,5.70
2019-04-05T02:10:48.707Z,5.70
2019-04-05T02:13:17.169Z,5.70
2019-04-05T02:18:13.797Z,5.70
2019-04-05T02:20:42.262Z,5.80
2019-04-05T02:23:10.657Z,5.80
2019-04-05T02:25:39.142Z,5.80
2019-04-05T02:30:35.659Z,5.80
2019-04-05T02:33:04.212Z,5.80
2019-04-05T02:35:32.718Z,5.80
2019-04-05T02:38:01.224Z,5.90
2019-04-05T02:40:31.079Z,5.80
2019-04-05T02:43:01.464Z,5.80
2019-04-05T02:45:32.945Z,5.70
2019-04-05T02:48:04.767Z,5.70
2019-04-05T02:50:35.841Z,5.70
2019-04-05T02:53:07.562Z,5.70
2019-04-05T02:55:37.174Z,5.70
2019-04-05T02:58:06.542Z,5.60
2019-04-05T03:00:35.185Z,5.60
2019-04-05T03:08:00.958Z,5.80
2019-04-05T03:10:54.931Z,5.70
2019-04-05T03:13:26.585Z,5.70
2019-04-05T03:18:27.773Z,5.60
2019-04-05T03:23:26.921Z,5.60
2019-04-05T03:25:57.430Z,5.50
2019-04-05T03:28:26.469Z,5.50
2019-04-05T03:30:54.933Z,5.40
2019-04-05T03:33:23.419Z,5.40
2019-04-05T03:35:52.181Z,5.40
2019-04-05T03:38:20.663Z,5.30
2019-04-05T03:40:49.296Z,5.50
2019-04-05T03:43:17.793Z,5.60
2019-04-05T03:45:46.630Z,5.60
2019-04-05T03:50:45.285Z,5.60
2019-04-05T03:53:13.805Z,5.70
2019-04-05T03:55:42.295Z,5.70
2019-04-05T03:58:11.212Z,5.80
2019-04-05T04:03:07.759Z,5.90
2019-04-05T04:08:04.615Z,5.80
2019-04-05T04:10:33.281Z,5.80
2019-04-05T04:13:01.702Z,5.80
2019-04-05T04:15:30.168Z,5.70
2019-04-05T04:17:58.699Z,5.80
2019-04-05T04:20:35.862Z,5.70
2019-04-05T04:23:06.423Z,5.60
2019-04-05T04:25:35.437Z,5.70
2019-04-05T04:28:04.557Z,5.70
2019-04-05T04:30:34.227Z,5.70
2019-04-05T04:33:03.404Z,5.70
2019-04-05T04:35:32.632Z,5.70
2019-04-05T04:38:01.738Z,5.70
2019-04-05T04:40:30.800Z,5.60
2019-04-05T04:43:00.532Z,5.60
2019-04-05T04:50:26.746Z,5.40
2019-04-05T04:52:55.888Z,5.50
2019-04-05T04:55:24.653Z,5.60
2019-04-05T04:57:53.380Z,5.60
2019-04-05T05:00:22.745Z,5.60
2019-04-05T05:02:51.729Z,5.50
2019-04-05T05:05:21.248Z,5.60
2019-04-05T05:07:50.013Z,5.50
2019-04-05T05:10:18.649Z,5.50
2019-04-05T05:12:47.126Z,5.60
2019-04-05T05:15:15.809Z,5.60
2019-04-05T05:17:57.692Z,5.60
2019-04-05T05:22:43.818Z,5.60
2019-04-05T05:25:12.664Z,5.60
2019-04-05T05:30:10.581Z,5.60
2019-04-05T05:32:39.059Z,5.70
2019-04-05T05:35:07.989Z,5.70
2019-04-05T05:37:36.740Z,5.70
2019-04-05T05:40:08.580Z,5.70
2019-04-05T05:42:37.166Z,5.60
2019-04-05T05:52:39.211Z,5.80
2019-04-05T05:55:07.910Z,5.80
2019-04-05T06:00:08.076Z,5.90
2019-04-05T06:05:07.512Z,5.90
2019-04-05T06:07:35.955Z,6.00
2019-04-05T06:12:35.447Z,5.80
2019-04-05T06:15:06.264Z,5.90
2019-04-05T06:17:34.661Z,5.90
2019-04-05T06:20:03.144Z,5.90
2019-04-05T06:22:31.552Z,6.00
2019-04-05T06:27:28.029Z,6.00
2019-04-05T06:29:56.436Z,6.00
2019-04-05T06:34:52.975Z,5.90
2019-04-05T06:37:21.416Z,5.90
2019-04-05T06:39:49.866Z,5.90
2019-04-05T06:42:18.272Z,5.90
2019-04-05T06:44:46.718Z,5.90
2019-04-05T06:47:15.262Z,5.80
2019-04-05T06:49:43.932Z,5.90
2019-04-05T06:52:12.376Z,5.90
2019-04-05T06:54:40.761Z,6.00
2019-04-05T06:57:09.218Z,6.00
2019-04-05T07:04:33.816Z,6.20
2019-04-05T07:07:02.237Z,6.10
2019-04-05T07:11:58.758Z,6.30
2019-04-05T07:16:55.241Z,6.40
2019-04-05T07:21:51.872Z,6.50
2019-04-05T07:24:20.256Z,6.60
2019-04-05T07:26:48.675Z,6.60
2019-04-05T07:29:17.098Z,6.60
2019-04-05T07:31:45.493Z,6.60
2019-04-05T07:34:13.897Z,6.60
2019-04-05T07:36:42.306Z,6.60
2019-04-05T07:39:10.740Z,6.60
2019-04-05T07:41:39.149Z,6.60
2019-04-05T07:44:07.583Z,6.60
2019-04-05T07:46:35.983Z,6.70
2019-04-05T07:49:04.448Z,6.80
2019-04-05T07:51:32.928Z,6.90
2019-04-05T07:54:01.324Z,7.10
2019-04-05T07:56:29.777Z,7.10
2019-04-05T07:58:58.169Z,7.30
2019-04-05T08:01:26.593Z,7.40
2019-04-05T08:03:57.840Z,7.40
2019-04-05T08:06:25.203Z,7.50
2019-04-05T08:11:24.440Z,8.00
2019-04-05T08:14:13.884Z,8.10
2019-04-05T08:16:42.344Z,8.20
2019-04-05T08:19:21.349Z,8.20
2019-04-05T08:21:53.743Z,8.40
2019-04-05T08:24:22.165Z,8.50
2019-04-05T08:26:50.621Z,8.50
2019-04-05T08:29:19.037Z,8.70
2019-04-05T08:36:43.677Z,8.60
2019-04-05T08:39:12.129Z,8.60
2019-04-05T08:41:40.536Z,8.70
2019-04-05T08:44:08.966Z,8.60
2019-04-05T08:49:11.177Z,8.70
2019-04-05T08:51:35.940Z,8.90
2019-04-05T08:54:32.468Z,9.00
2019-04-05T08:56:53.828Z,9.10
2019-04-05T08:59:22.232Z,9.00
2019-04-05T09:01:50.630Z,9.00
2019-04-05T09:04:19.070Z,9.30
2019-04-05T09:06:47.522Z,9.20
2019-04-05T09:09:15.928Z,9.30
2019-04-05T09:11:44.328Z,9.50
2019-04-05T09:14:12.736Z,9.70
2019-04-05T09:16:41.175Z,9.80
2019-04-05T09:19:09.590Z,9.90
2019-04-05T09:21:40.487Z,9.80
2019-04-05T09:29:04.529Z,9.00
2019-04-05T09:31:32.979Z,8.90
2019-04-05T09:34:01.449Z,8.80
2019-04-05T09:36:29.866Z,8.60
2019-04-05T09:38:58.259Z,8.40
2019-04-05T09:41:26.674Z,8.40
2019-04-05T09:43:55.153Z,8.50
2019-04-05T09:46:23.591Z,8.60
2019-04-05T09:51:20.190Z,8.50
2019-04-05T09:56:16.724Z,8.40
2019-04-05T09:58:45.128Z,8.40
2019-04-05T10:01:13.570Z,8.30
2019-04-05T10:03:41.967Z,8.30
2019-04-05T10:06:10.407Z,8.40
2019-04-05T10:08:38.809Z,8.40
2019-04-05T10:13:35.320Z,8.50
2019-04-05T10:18:31.805Z,8.50
2019-04-05T10:28:24.561Z,7.90
2019-04-05T10:30:53.034Z,7.80
2019-04-05T10:35:49.559Z,7.80
2019-04-05T10:38:17.998Z,7.70
2019-04-05T10:40:46.482Z,7.70
2019-04-05T10:43:14.880Z,7.80
2019-04-05T10:48:11.364Z,7.90
2019-04-05T10:55:35.940Z,7.90
2019-04-05T10:58:04.759Z,8.00
2019-04-05T11:00:33.561Z,8.00
2019-04-05T11:03:01.966Z,8.10
2019-04-05T11:05:30.379Z,8.10
2019-04-05T11:07:58.823Z,8.10
2019-04-05T11:10:27.270Z,8.10
2019-04-05T11:12:55.830Z,8.20
2019-04-05T11:15:24.459Z,8.30
2019-04-05T11:17:52.895Z,8.40
2019-04-05T11:22:51.300Z,8.20
2019-04-05T11:25:20.904Z,8.10
2019-04-05T11:30:45.213Z,8.00
2019-04-05T11:33:14.256Z,8.00
2019-04-05T11:35:43.215Z,8.00
2019-04-05T11:38:12.864Z,8.10
2019-04-05T11:40:41.752Z,8.10
2019-04-05T11:43:10.254Z,8.10
2019-04-05T11:45:38.752Z,8.10
2019-04-05T11:48:07.301Z,8.10
2019-04-05T11:50:35.764Z,8.20
2019-04-05T11:53:04.250Z,8.20
2019-04-05T11:55:32.654Z,8.20
2019-04-05T12:00:30.816Z,8.40
2019-04-05T12:03:03.797Z,8.40
2019-04-05T12:05:32.255Z,8.60
2019-04-05T12:08:02.002Z,8.80
2019-04-05T12:10:32.107Z,9.00
2019-04-05T12:17:57.126Z,9.60
2019-04-05T12:25:21.724Z,9.70
2019-04-05T12:30:19.991Z,9.70
2019-04-05T12:37:50.520Z,10.00
2019-04-05T12:40:18.168Z,10.00
2019-04-05T12:42:46.614Z,9.70
2019-04-05T12:47:45.715Z,9.70
2019-04-05T12:55:12.716Z,9.60
2019-04-05T12:57:41.174Z,9.70
2019-04-05T13:00:13.605Z,9.80
2019-04-05T13:05:10.495Z,10.30
2019-04-05T13:07:38.907Z,10.40
2019-04-05T13:10:07.580Z,10.40
2019-04-05T13:12:36.077Z,10.40
2019-04-05T13:15:13.861Z,10.20
2019-04-05T13:17:36.869Z,10.20
2019-04-05T13:20:07.153Z,10.20
2019-04-05T13:22:35.558Z,10.20
2019-04-05T13:25:06.442Z,10.00
2019-04-05T13:27:34.969Z,10.10
2019-04-05T13:35:01.069Z,10.20
2019-04-05T13:40:00.062Z,10.20
2019-04-05T13:47:26.932Z,10.10
2019-04-05T13:49:55.398Z,10.00
2019-04-05T13:52:23.792Z,9.90
2019-04-05T13:54:52.213Z,9.80
2019-04-05T13:57:20.609Z,9.80
2019-04-05T13:59:49.031Z,9.90
2019-04-05T14:02:20.712Z,10.00
2019-04-05T14:07:15.666Z,10.40
2019-04-05T14:09:44.135Z,10.30
2019-04-05T14:12:12.547Z,10.20
2019-04-05T14:14:41.536Z,10.10
2019-04-05T14:17:13.657Z,10.00
2019-04-05T14:19:42.463Z,10.00
2019-04-05T14:22:10.891Z,10.00
2019-04-05T14:24:39.297Z,10.00
2019-04-05T14:27:07.704Z,10.10
2019-04-05T14:29:36.124Z,10.00
2019-04-05T14:34:34.553Z,10.00
2019-04-05T14:37:03.000Z,10.00
2019-04-05T14:39:31.506Z,10.00
2019-04-05T14:42:09.650Z,9.90
2019-04-05T14:44:30.078Z,9.90
2019-04-05T14:46:58.782Z,10.00
2019-04-05T14:49:30.236Z,10.10
2019-04-05T14:54:27.574Z,10.20
2019-04-05T14:59:25.811Z,10.20
2019-04-05T15:04:22.296Z,10.10
2019-04-05T15:06:51.463Z,10.10
2019-04-05T15:14:24.823Z,9.90
2019-04-05T15:16:53.257Z,9.90
2019-04-05T15:19:21.660Z,9.90
2019-04-05T15:21:50.069Z,9.80
2019-04-05T15:24:18.487Z,9.90
2019-04-05T15:26:46.886Z,9.80
2019-04-05T15:31:43.386Z,9.90
2019-04-05T15:34:11.797Z,9.80
2019-04-05T15:39:09.538Z,9.80
2019-04-05T15:41:37.989Z,9.90
2019-04-05T15:44:06.428Z,9.80
2019-04-05T15:46:34.842Z,9.90
2019-04-05T15:49:03.295Z,9.90
2019-04-05T15:51:31.754Z,9.80
2019-04-05T15:54:01.488Z,9.80
2019-04-05T16:01:34.247Z,9.70
2019-04-05T16:04:03.440Z,9.80
2019-04-05T16:06:32.274Z,9.70
2019-04-05T16:13:56.821Z,9.70
2019-04-05T16:16:25.544Z,9.60
2019-04-05T16:18:53.937Z,9.40
2019-04-05T16:21:22.382Z,9.40
2019-04-05T16:23:50.773Z,9.50
2019-04-05T16:28:47.288Z,9.70
2019-04-05T16:34:01.523Z,9.60
2019-04-05T16:38:59.635Z,9.60
2019-04-05T16:41:28.075Z,9.50
2019-04-05T16:49:01.421Z,9.30
2019-04-05T16:51:29.871Z,9.10
2019-04-05T16:53:59.339Z,9.00
2019-04-05T16:56:28.795Z,8.90
2019-04-05T16:58:58.495Z,8.90
2019-04-05T17:01:27.733Z,8.90
2019-04-05T17:03:56.375Z,9.00
2019-04-05T17:06:24.805Z,8.90
2019-04-05T17:11:21.283Z,8.70
2019-04-05T17:13:49.711Z,8.50
2019-04-05T17:21:14.276Z,8.20
2019-04-05T17:28:39.113Z,8.00
2019-04-05T17:31:07.553Z,7.80
2019-04-05T17:33:35.952Z,7.70
2019-04-05T17:36:04.496Z,7.60
2019-04-05T17:38:52.252Z,7.60
2019-04-05T17:43:48.756Z,7.40
2019-04-05T17:46:17.192Z,7.40
2019-04-05T17:48:45.617Z,7.40
2019-04-05T17:53:42.184Z,7.30
2019-04-05T17:56:11.233Z,7.30
2019-04-05T17:58:40.135Z,7.30
2019-04-05T18:01:08.722Z,7.30
2019-04-05T18:06:05.347Z,7.30
2019-04-05T18:08:33.761Z,7.40
2019-04-05T18:11:02.173Z,7.30
2019-04-05T18:13:31.420Z,7.30
2019-04-05T18:18:28.091Z,7.30
2019-04-05T18:20:56.555Z,7.30
2019-04-05T18:33:30.332Z,7.40
2019-04-05T18:36:11.501Z,7.30
2019-04-05T18:38:39.911Z,7.30
2019-04-05T18:41:08.385Z,7.30
2019-04-05T18:43:36.803Z,7.20
2019-04-05T18:46:05.206Z,7.20
2019-04-05T18:48:33.612Z,7.30
2019-04-05T18:56:53.834Z,7.10
2019-04-05T18:59:22.248Z,7.00
2019-04-05T19:01:50.657Z,7.00
2019-04-05T19:04:19.066Z,7.00
2019-04-05T19:06:47.510Z,6.90
2019-04-05T19:09:16.050Z,6.90
2019-04-05T19:11:44.451Z,6.90
2019-04-05T19:14:12.893Z,6.80
2019-04-05T19:16:41.388Z,6.80
2019-04-05T19:19:09.792Z,6.70
2019-04-05T19:21:38.193Z,6.70
2019-04-05T19:24:06.616Z,6.70
2019-04-05T19:26:35.081Z,6.60
2019-04-05T19:49:02.646Z,6.30
2019-04-05T19:51:31.068Z,6.20
2019-04-05T20:01:25.485Z,6.10
2019-04-05T20:03:53.960Z,6.10
2019-04-05T20:06:22.412Z,6.00
2019-04-05T20:11:39.913Z,6.00
2019-04-05T20:14:08.321Z,5.90
2019-04-05T20:21:32.965Z,5.90
2019-04-05T20:26:31.211Z,5.80
2019-04-05T20:28:59.617Z,5.80
2019-04-05T20:31:28.038Z,5.70
2019-04-05T20:33:56.436Z,5.60
2019-04-05T20:36:24.900Z,5.60
2019-04-05T20:43:49.688Z,5.50
2019-04-05T20:46:18.117Z,5.50
2019-04-05T20:48:46.522Z,5.40
2019-04-05T20:53:43.059Z,5.40
2019-04-05T21:01:07.796Z,5.40
2019-04-05T21:03:36.208Z,5.60
2019-04-05T21:06:04.600Z,5.70
2019-04-05T21:08:33.013Z,5.80
2019-04-05T21:13:53.555Z,5.90
2019-04-05T21:16:22.035Z,6.00
2019-04-05T21:18:50.432Z,6.00
2019-04-05T21:21:18.841Z,6.00
2019-04-05T21:23:47.260Z,6.00
2019-04-05T21:26:15.660Z,5.90
2019-04-05T21:28:44.081Z,5.80
2019-04-05T21:33:40.616Z,5.60
2019-04-05T21:36:09.004Z,5.50
2019-04-05T21:38:37.473Z,5.50
2019-04-05T21:41:05.927Z,5.60
2019-04-05T21:43:34.341Z,5.70
2019-04-05T21:46:02.842Z,5.60
2019-04-05T21:48:31.291Z,5.70
2019-04-05T21:50:59.723Z,5.70
2019-04-05T21:53:28.116Z,5.70
2019-04-05T21:55:56.528Z,5.60
2019-04-05T21:58:26.008Z,5.70
2019-04-05T22:01:02.198Z,5.70
2019-04-05T22:03:30.676Z,5.60
2019-04-05T22:05:59.126Z,5.60
2019-04-05T22:08:27.536Z,5.50
2019-04-05T22:10:55.972Z,5.50
2019-04-05T22:13:24.453Z,5.60
2019-04-05T22:15:52.852Z,5.60
2019-04-05T22:18:21.311Z,5.60
2019-04-05T22:20:49.744Z,5.60
2019-04-05T22:23:18.196Z,5.50
2019-04-05T22:25:46.639Z,5.50
2019-04-05T22:28:15.042Z,5.60
2019-04-05T22:33:11.531Z,5.60
2019-04-05T22:35:39.932Z,5.60
2019-04-05T22:38:08.365Z,5.70
2019-04-05T22:40:36.830Z,5.70
2019-04-05T22:43:05.275Z,5.70
2019-04-05T22:45:33.684Z,5.70
2019-04-05T22:48:02.169Z,5.70
2019-04-05T22:50:30.573Z,5.80
2019-04-05T22:52:59.057Z,5.80
2019-04-05T22:55:27.503Z,5.80
2019-04-05T22:57:55.907Z,5.90
2019-04-05T23:00:24.310Z,5.80
2019-04-05T23:02:52.794Z,5.80
2019-04-05T23:05:21.196Z,5.80
2019-04-05T23:07:49.603Z,5.90
2019-04-05T23:12:46.278Z,5.90
2019-04-05T23:15:14.739Z,5.90
2019-04-05T23:20:11.762Z,5.90
2019-04-05T23:22:40.228Z,5.90
2019-04-05T23:25:08.985Z,5.90
2019-04-05T23:27:37.445Z,5.90
2019-04-05T23:30:07.810Z,5.80
2019-04-05T23:32:36.240Z,5.70
2019-04-05T23:35:07.219Z,5.70
2019-04-05T23:37:35.623Z,5.80
2019-04-05T23:42:34.370Z,5.90
2019-04-05T23:45:02.780Z,5.90
2019-04-05T23:52:47.356Z,5.90
2019-04-05T23:55:15.850Z,5.90
2019-04-05T23:57:44.279Z,6.00
